Time;durP1;ratioP1;P1;durP2;ratioP2;P2;SDS_P1;SDS_P2;PMS_P1;PMS_P2;Temp;Humidity;BMP_temperature;BMP_pressure;BME280_temperature;BME280_humidity;BME280_pressure;Samples;Min_cycle;Max_cycle;Signal;HPM_P1;HPM_P2
2022/03/08 00:00:10;;;;;;;;;;;18.60;56.60;;;;;;5047102;28;1364;-69
2022/03/08 00:02:36;;;;;;;;;;;18.70;56.60;;;;;;5031359;28;1914;-68
2022/03/08 00:05:01;;;;;;;;;;;18.60;56.60;;;;;;5048340;28;946;-68
2022/03/08 00:07:28;;;;;;;;;;;18.60;56.70;;;;;;5033223;28;902;-69
2022/03/08 00:09:55;;;;;;;;;;;18.60;56.70;;;;;;5047511;28;929;-69
2022/03/08 00:12:21;;;;;;;;;;;18.60;56.70;;;;;;5033150;28;1296;-68
2022/03/08 00:14:46;;;;;;;;;;;18.60;56.70;;;;;;5032782;28;871;-68
2022/03/08 00:17:12;;;;;;;;;;;18.60;56.70;;;;;;5033043;28;784;-69
2022/03/08 00:19:37;;;;;;;;;;;18.60;56.70;;;;;;5031686;28;1022;-69
2022/03/08 00:22:03;;;;;;;;;;;18.60;56.70;;;;;;5032734;28;1898;-69
2022/03/08 00:24:28;;;;;;;;;;;18.60;56.80;;;;;;5031496;28;1500;-69
2022/03/08 00:26:54;;;;;;;;;;;18.60;56.80;;;;;;5031606;28;798;-69
2022/03/08 00:29:19;;;;;;;;;;;18.60;56.80;;;;;;5030776;28;906;-69
2022/03/08 00:31:44;;;;;;;;;;;18.50;56.80;;;;;;5031416;28;1197;-69
2022/03/08 00:34:10;;;;;;;;;;;18.60;56.90;;;;;;5032546;28;1400;-69
2022/03/08 00:36:36;;;;;;;;;;;18.50;56.80;;;;;;5032619;28;1062;-69
2022/03/08 00:39:02;;;;;;;;;;;18.60;56.90;;;;;;5031015;28;886;-68
2022/03/08 00:41:27;;;;;;;;;;;18.50;56.80;;;;;;5031299;28;1950;-68
2022/03/08 00:43:52;;;;;;;;;;;18.50;56.90;;;;;;5032595;28;1276;-67
2022/03/08 00:46:18;;;;;;;;;;;18.50;56.90;;;;;;5032776;28;899;-68
2022/03/08 00:48:43;;;;;;;;;;;18.50;56.90;;;;;;5032527;28;903;-68
2022/03/08 00:51:09;;;;;;;;;;;18.50;56.90;;;;;;5052196;28;1184;-68
2022/03/08 00:53:35;;;;;;;;;;;18.50;57.00;;;;;;5034804;28;1199;-67
2022/03/08 00:56:00;;;;;;;;;;;18.50;57.00;;;;;;5036028;28;891;-68
2022/03/08 00:58:26;;;;;;;;;;;18.50;57.00;;;;;;5036212;28;931;-69
2022/03/08 01:00:51;;;;;;;;;;;18.50;57.00;;;;;;5035924;28;1910;-68
2022/03/08 01:03:17;;;;;;;;;;;18.50;57.00;;;;;;5035353;28;1286;-69
2022/03/08 01:05:42;;;;;;;;;;;18.50;57.00;;;;;;5051588;28;1360;-70
2022/03/08 01:08:07;;;;;;;;;;;18.50;57.10;;;;;;5036449;28;808;-70
2022/03/08 01:10:33;;;;;;;;;;;18.50;57.10;;;;;;5034493;28;812;-69
2022/03/08 01:12:58;;;;;;;;;;;18.50;57.10;;;;;;5034865;28;1250;-69
2022/03/08 01:15:24;;;;;;;;;;;18.50;57.10;;;;;;5036267;28;1026;-70
2022/03/08 01:17:49;;;;;;;;;;;18.50;57.10;;;;;;5036440;28;1049;-70
2022/03/08 01:20:15;;;;;;;;;;;18.50;57.10;;;;;;5034280;28;1010;-70
2022/03/08 01:22:40;;;;;;;;;;;18.50;57.10;;;;;;5035784;28;1901;-70
2022/03/08 01:25:06;;;;;;;;;;;18.40;57.10;;;;;;5035910;28;1408;-70
2022/03/08 01:27:32;;;;;;;;;;;18.50;57.70;;;;;;5035970;28;847;-70
2022/03/08 01:29:57;;;;;;;;;;;18.50;57.10;;;;;;5035241;28;890;-70
2022/03/08 01:32:22;;;;;;;;;;;18.50;57.10;;;;;;5035959;28;1200;-70
2022/03/08 01:34:48;;;;;;;;;;;18.50;57.10;;;;;;5034755;28;1413;-70
2022/03/08 01:37:13;;;;;;;;;;;18.50;57.10;;;;;;5035566;28;945;-70
2022/03/08 01:39:39;;;;;;;;;;;18.50;57.10;;;;;;5034108;28;1077;-70
2022/03/08 01:42:08;;;;;;;;;;;18.50;57.10;;;;;;5035476;28;1961;-70
2022/03/08 01:44:33;;;;;;;;;;;18.50;57.10;;;;;;5035830;28;886;-70
2022/03/08 01:46:59;;;;;;;;;;;18.50;57.10;;;;;;5035602;28;798;-68
2022/03/08 01:49:24;;;;;;;;;;;18.50;57.10;;;;;;5050454;28;763;-68
2022/03/08 01:51:50;;;;;;;;;;;18.50;57.00;;;;;;5035500;28;1292;-68
2022/03/08 01:54:15;;;;;;;;;;;18.50;57.00;;;;;;5034531;28;1597;-68
2022/03/08 01:56:40;;;;;;;;;;;18.50;57.00;;;;;;5050667;28;1324;-68
2022/03/08 01:59:06;;;;;;;;;;;18.50;57.00;;;;;;5034292;28;894;-69
2022/03/08 02:01:31;;;;;;;;;;;18.50;57.00;;;;;;5035161;28;1914;-68
2022/03/08 02:03:57;;;;;;;;;;;18.50;57.00;;;;;;5034320;28;843;-68
2022/03/08 02:06:22;;;;;;;;;;;18.50;57.00;;;;;;5035329;28;768;-69
2022/03/08 02:08:48;;;;;;;;;;;18.50;57.00;;;;;;5034289;28;816;-68
2022/03/08 02:11:13;;;;;;;;;;;18.50;57.00;;;;;;5033594;28;847;-68
2022/03/08 02:13:39;;;;;;;;;;;18.50;57.00;;;;;;5033842;28;1260;-68
2022/03/08 02:16:04;;;;;;;;;;;18.50;57.10;;;;;;5035060;28;1165;-68
2022/03/08 02:18:30;;;;;;;;;;;18.50;57.00;;;;;;5034975;28;879;-68
2022/03/08 02:20:55;;;;;;;;;;;18.50;57.10;;;;;;5029188;28;1965;-68
2022/03/08 02:23:20;;;;;;;;;;;18.50;57.10;;;;;;5015146;28;1283;-70
2022/03/08 02:25:46;;;;;;;;;;;18.50;57.10;;;;;;5030776;28;1502;-69
2022/03/08 02:28:11;;;;;;;;;;;18.50;57.10;;;;;;5034847;28;883;-70
2022/03/08 02:30:37;;;;;;;;;;;18.50;57.10;;;;;;5049625;28;1291;-70
2022/03/08 02:33:02;;;;;;;;;;;18.50;57.10;;;;;;5034782;28;1194;-70
2022/03/08 02:35:29;;;;;;;;;;;18.50;57.10;;;;;;5022369;28;1473;-69
2022/03/08 02:37:55;;;;;;;;;;;18.50;57.10;;;;;;5013850;28;848;-69
2022/03/08 02:40:24;;;;;;;;;;;18.50;57.10;;;;;;5014105;28;832;-69
2022/03/08 02:42:50;;;;;;;;;;;18.50;57.10;;;;;;5013508;28;1959;-69
2022/03/08 02:45:16;;;;;;;;;;;18.50;57.10;;;;;;5015161;28;1153;-69
2022/03/08 02:47:41;;;;;;;;;;;18.50;57.10;;;;;;5016939;28;1217;-69
2022/03/08 02:50:07;;;;;;;;;;;18.50;57.10;;;;;;5012407;28;799;-69
2022/03/08 02:52:33;;;;;;;;;;;18.50;57.10;;;;;;5013479;28;1220;-70
2022/03/08 02:54:58;;;;;;;;;;;18.50;57.10;;;;;;5013348;28;1349;-69
2022/03/08 02:57:24;;;;;;;;;;;18.50;57.10;;;;;;5013400;28;907;-70
2022/03/08 02:59:49;;;;;;;;;;;18.50;57.10;;;;;;5013790;28;727;-69
2022/03/08 03:02:15;;;;;;;;;;;18.50;57.10;;;;;;5014500;28;1902;-70
2022/03/08 03:04:40;;;;;;;;;;;18.50;57.10;;;;;;5017028;28;1085;-69
2022/03/08 03:07:05;;;;;;;;;;;18.50;57.20;;;;;;5017108;28;1053;-69
2022/03/08 03:09:31;;;;;;;;;;;18.50;57.20;;;;;;5013394;28;800;-69
2022/03/08 03:11:56;;;;;;;;;;;18.50;57.20;;;;;;5012125;28;1269;-69
2022/03/08 03:14:22;;;;;;;;;;;18.50;57.20;;;;;;5014568;28;1032;-69
2022/03/08 03:16:47;;;;;;;;;;;18.50;57.20;;;;;;5016637;28;1180;-70
2022/03/08 03:19:13;;;;;;;;;;;18.50;57.20;;;;;;5038830;28;1209;-69
2022/03/08 03:21:38;;;;;;;;;;;18.50;57.20;;;;;;5023003;28;1901;-69
2022/03/08 03:24:04;;;;;;;;;;;18.40;57.20;;;;;;5037699;28;1428;-69
2022/03/08 03:26:29;;;;;;;;;;;18.40;57.20;;;;;;5029386;28;1209;-69
2022/03/08 03:28:55;;;;;;;;;;;18.40;57.20;;;;;;5032310;28;1105;-69
2022/03/08 03:31:20;;;;;;;;;;;18.50;57.30;;;;;;5033810;28;725;-69
2022/03/08 03:33:45;;;;;;;;;;;18.40;57.30;;;;;;5033261;28;1245;-69
2022/03/08 03:36:11;;;;;;;;;;;18.40;57.30;;;;;;5030745;28;1056;-69
2022/03/08 03:38:36;;;;;;;;;;;18.40;57.30;;;;;;5013392;28;761;-69
2022/03/08 03:41:02;;;;;;;;;;;18.40;57.30;;;;;;5012654;28;2419;-69
2022/03/08 03:43:27;;;;;;;;;;;18.40;57.30;;;;;;5029368;22;1933;-69
2022/03/08 03:45:53;;;;;;;;;;;18.40;57.30;;;;;;5012263;28;874;-70
2022/03/08 03:48:18;;;;;;;;;;;18.40;57.40;;;;;;5013704;28;854;-70
2022/03/08 03:50:43;;;;;;;;;;;18.40;57.40;;;;;;5013073;28;993;-70
2022/03/08 03:53:09;;;;;;;;;;;18.40;57.40;;;;;;5011964;28;1241;-69
2022/03/08 03:55:34;;;;;;;;;;;18.40;57.30;;;;;;5013015;28;903;-70
2022/03/08 03:58:00;;;;;;;;;;;18.40;57.30;;;;;;5013533;28;899;-69
2022/03/08 04:00:25;;;;;;;;;;;18.50;57.20;;;;;;5012891;28;981;-69
2022/03/08 04:02:51;;;;;;;;;;;18.50;57.10;;;;;;5013107;28;1906;-69
2022/03/08 04:05:16;;;;;;;;;;;18.60;57.00;;;;;;5012114;28;824;-69
2022/03/08 04:07:42;;;;;;;;;;;18.60;56.90;;;;;;5012297;28;792;-70
2022/03/08 04:10:08;;;;;;;;;;;18.70;56.80;;;;;;5011030;28;907;-70
2022/03/08 04:12:33;;;;;;;;;;;18.70;56.70;;;;;;5011864;28;1217;-70
2022/03/08 04:14:58;;;;;;;;;;;18.80;56.50;;;;;;5013289;28;982;-70
2022/03/08 04:17:24;;;;;;;;;;;18.80;56.40;;;;;;5013462;28;927;-69
2022/03/08 04:19:49;;;;;;;;;;;18.90;56.30;;;;;;5012857;28;1030;-69
2022/03/08 04:22:15;;;;;;;;;;;18.90;56.10;;;;;;4996492;28;1966;-70
2022/03/08 04:24:40;;;;;;;;;;;18.90;56.00;;;;;;4992082;28;1105;-70
2022/03/08 04:27:06;;;;;;;;;;;19.00;56.00;;;;;;4992392;28;856;-70
2022/03/08 04:29:31;;;;;;;;;;;19.00;55.90;;;;;;4991560;28;1264;-70
2022/03/08 04:31:57;;;;;;;;;;;19.00;55.80;;;;;;4993354;28;1688;-69
2022/03/08 04:34:22;;;;;;;;;;;19.10;55.80;;;;;;4997067;28;1131;-69
2022/03/08 04:36:48;;;;;;;;;;;19.10;55.70;;;;;;5010394;28;1211;-69
2022/03/08 04:39:13;;;;;;;;;;;19.10;55.70;;;;;;5012586;28;516;-70
2022/03/08 04:41:39;;;;;;;;;;;19.10;55.60;;;;;;5011319;28;1961;-70
2022/03/08 04:44:04;;;;;;;;;;;19.10;55.60;;;;;;5011513;28;1189;-69
2022/03/08 04:46:30;;;;;;;;;;;19.10;55.60;;;;;;5011844;28;978;-69
2022/03/08 04:48:55;;;;;;;;;;;19.10;55.60;;;;;;5012289;28;1018;-69
2022/03/08 04:51:20;;;;;;;;;;;19.10;55.50;;;;;;5011593;28;1081;-70
2022/03/08 04:53:46;;;;;;;;;;;19.10;55.50;;;;;;5012012;28;1208;-70
2022/03/08 04:56:11;;;;;;;;;;;19.10;55.50;;;;;;5013172;28;837;-69
2022/03/08 04:58:37;;;;;;;;;;;19.10;55.50;;;;;;5012301;28;799;-70
2022/03/08 05:01:02;;;;;;;;;;;19.10;55.50;;;;;;4994873;28;1914;-70
2022/03/08 05:03:27;;;;;;;;;;;19.20;55.60;;;;;;5011640;28;1209;-70
2022/03/08 05:05:53;;;;;;;;;;;19.10;55.50;;;;;;5011210;28;883;-69
2022/03/08 05:08:18;;;;;;;;;;;19.10;55.50;;;;;;5011597;28;843;-69
2022/03/08 05:10:44;;;;;;;;;;;19.10;55.50;;;;;;5012136;28;687;-70
2022/03/08 05:13:09;;;;;;;;;;;19.10;55.50;;;;;;4995190;28;1193;-69
2022/03/08 05:15:36;;;;;;;;;;;19.10;55.50;;;;;;5011288;28;792;-70
2022/03/08 05:18:01;;;;;;;;;;;19.10;55.50;;;;;;4995192;28;1188;-70
2022/03/08 05:20:27;;;;;;;;;;;19.10;55.50;;;;;;5010333;28;1159;-69
2022/03/08 05:22:52;;;;;;;;;;;19.10;55.50;;;;;;4992515;28;1898;-69
2022/03/08 05:25:17;;;;;;;;;;;19.10;55.60;;;;;;5004288;28;1127;-70
2022/03/08 05:27:43;;;;;;;;;;;19.10;55.50;;;;;;5012471;28;710;-70
2022/03/08 05:30:09;;;;;;;;;;;19.10;55.50;;;;;;5012078;28;871;-69
2022/03/08 05:32:34;;;;;;;;;;;19.10;55.50;;;;;;4994576;28;1273;-70
2022/03/08 05:34:59;;;;;;;;;;;19.10;55.50;;;;;;5004307;28;1182;-69
2022/03/08 05:37:25;;;;;;;;;;;19.10;55.50;;;;;;5011875;28;830;-70
2022/03/08 05:39:50;;;;;;;;;;;19.10;55.50;;;;;;4996007;28;874;-70
2022/03/08 05:42:16;;;;;;;;;;;19.10;55.50;;;;;;4996204;28;1944;-70
2022/03/08 05:44:41;;;;;;;;;;;19.10;55.60;;;;;;5011057;28;601;-70
2022/03/08 05:47:07;;;;;;;;;;;19.10;55.60;;;;;;5011607;28;807;-70
2022/03/08 05:49:32;;;;;;;;;;;19.10;55.60;;;;;;5011051;28;815;-70
2022/03/08 05:51:57;;;;;;;;;;;19.10;55.60;;;;;;4996791;28;1230;-70
2022/03/08 05:54:23;;;;;;;;;;;19.10;55.60;;;;;;5011185;28;820;-70
2022/03/08 05:56:48;;;;;;;;;;;19.10;56.20;;;;;;5011490;28;954;-70
2022/03/08 05:59:14;;;;;;;;;;;19.10;55.60;;;;;;4994440;28;1906;-71
2022/03/08 06:01:40;;;;;;;;;;;19.10;55.60;;;;;;4987870;28;2067;-69
2022/03/08 06:04:05;;;;;;;;;;;19.10;55.60;;;;;;4991404;28;2258;-71
2022/03/08 06:06:31;;;;;;;;;;;19.10;55.60;;;;;;4990407;28;1325;-72
2022/03/08 06:08:56;;;;;;;;;;;19.10;55.60;;;;;;4992747;28;792;-70
2022/03/08 06:11:22;;;;;;;;;;;19.10;55.60;;;;;;4994697;28;780;-71
2022/03/08 06:13:47;;;;;;;;;;;19.10;55.60;;;;;;4993083;28;1257;-72
2022/03/08 06:16:13;;;;;;;;;;;19.10;55.60;;;;;;4994872;28;879;-73
2022/03/08 06:18:39;;;;;;;;;;;19.10;55.60;;;;;;4993187;28;777;-72
2022/03/08 06:21:04;;;;;;;;;;;19.10;55.60;;;;;;4994295;28;1910;-72
2022/03/08 06:23:29;;;;;;;;;;;19.10;55.60;;;;;;5009647;28;1312;-73
2022/03/08 06:25:55;;;;;;;;;;;19.10;55.60;;;;;;5009798;28;966;-72
2022/03/08 06:28:20;;;;;;;;;;;19.10;55.60;;;;;;4993079;28;696;-72
2022/03/08 06:30:46;;;;;;;;;;;19.10;55.70;;;;;;4994066;28;847;-70
2022/03/08 06:33:12;;;;;;;;;;;19.10;55.70;;;;;;4994375;28;1186;-71
2022/03/08 06:35:37;;;;;;;;;;;19.10;55.70;;;;;;4993577;28;2105;-70
2022/03/08 06:38:03;;;;;;;;;;;19.10;55.70;;;;;;4976258;28;1400;-71
2022/03/08 06:40:28;;;;;;;;;;;19.10;55.70;;;;;;4976499;28;1202;-71
2022/03/08 06:42:54;;;;;;;;;;;19.10;55.70;;;;;;4976200;28;1898;-71
2022/03/08 06:45:19;;;;;;;;;;;19.10;55.80;;;;;;5009280;28;1116;-70
2022/03/08 06:47:45;;;;;;;;;;;19.10;55.70;;;;;;4994052;28;923;-68
2022/03/08 06:50:10;;;;;;;;;;;19.10;55.80;;;;;;4993477;28;1096;-69
2022/03/08 06:52:36;;;;;;;;;;;19.10;55.80;;;;;;4993951;28;1210;-68
2022/03/08 06:55:01;;;;;;;;;;;19.10;55.80;;;;;;4994050;28;777;-68
2022/03/08 06:57:26;;;;;;;;;;;19.00;55.70;;;;;;4976604;28;741;-69
2022/03/08 06:59:52;;;;;;;;;;;19.10;55.80;;;;;;4992065;28;855;-68
2022/03/08 07:02:17;;;;;;;;;;;19.10;55.80;;;;;;4976264;28;1962;-70
2022/03/08 07:04:43;;;;;;;;;;;19.00;55.80;;;;;;4994044;28;2194;-72
2022/03/08 07:07:08;;;;;;;;;;;19.00;55.80;;;;;;5009342;28;1112;-72
2022/03/08 07:09:34;;;;;;;;;;;19.00;55.80;;;;;;4992770;28;1089;-70
2022/03/08 07:11:59;;;;;;;;;;;19.00;55.80;;;;;;4992912;28;1233;-69
2022/03/08 07:14:25;;;;;;;;;;;19.00;55.80;;;;;;4993427;28;896;-70
2022/03/08 07:16:50;;;;;;;;;;;19.00;55.80;;;;;;4994556;28;892;-71
2022/03/08 07:19:15;;;;;;;;;;;19.00;55.80;;;;;;4993065;28;940;-70
2022/03/08 07:21:41;;;;;;;;;;;19.00;56.50;;;;;;4992746;28;1906;-69
2022/03/08 07:24:06;;;;;;;;;;;19.00;55.90;;;;;;4995914;28;1205;-68
2022/03/08 07:26:32;;;;;;;;;;;19.00;55.90;;;;;;5013037;28;864;-69
2022/03/08 07:28:57;;;;;;;;;;;19.00;55.90;;;;;;5012366;28;803;-70
2022/03/08 07:31:23;;;;;;;;;;;19.00;55.90;;;;;;5012451;28;855;-70
2022/03/08 07:33:48;;;;;;;;;;;19.00;55.90;;;;;;5013685;28;1261;-69
2022/03/08 07:36:14;;;;;;;;;;;19.00;55.90;;;;;;4994071;28;1159;-70
2022/03/08 07:38:39;;;;;;;;;;;19.00;55.90;;;;;;4993996;28;1006;-69
2022/03/08 07:41:05;;;;;;;;;;;19.00;55.90;;;;;;4993798;28;1911;-69
2022/03/08 07:43:30;;;;;;;;;;;19.00;56.00;;;;;;4992645;28;1206;-69
2022/03/08 07:45:57;;;;;;;;;;;19.00;55.90;;;;;;4993640;28;1064;-68
2022/03/08 07:48:22;;;;;;;;;;;19.00;55.90;;;;;;4993902;28;787;-70
2022/03/08 07:50:48;;;;;;;;;;;19.00;55.90;;;;;;5008567;28;826;-70
2022/03/08 07:53:13;;;;;;;;;;;19.00;55.90;;;;;;4993914;28;1336;-70
2022/03/08 07:55:38;;;;;;;;;;;19.00;55.90;;;;;;5009164;28;783;-70
2022/03/08 07:58:04;;;;;;;;;;;19.10;55.90;;;;;;4992493;28;2211;-70
2022/03/08 08:00:30;;;;;;;;;;;19.20;55.80;;;;;;4992166;28;1920;-70
2022/03/08 08:02:55;;;;;;;;;;;19.30;55.50;;;;;;4993745;28;1975;-69
2022/03/08 08:05:21;;;;;;;;;;;19.50;55.40;;;;;;4992171;28;1323;-70
2022/03/08 08:07:46;;;;;;;;;;;19.60;55.10;;;;;;4993778;28;1050;-70
2022/03/08 08:10:11;;;;;;;;;;;19.80;54.90;;;;;;4991783;28;1197;-70
2022/03/08 08:12:37;;;;;;;;;;;19.90;54.60;;;;;;4992977;28;2218;-70
2022/03/08 08:15:03;;;;;;;;;;;20.10;54.30;;;;;;4991680;28;1134;-70
2022/03/08 08:17:28;;;;;;;;;;;20.10;54.00;;;;;;4993607;28;1190;-70
2022/03/08 08:19:54;;;;;;;;;;;20.30;53.70;;;;;;4991767;28;864;-70
2022/03/08 08:22:19;;;;;;;;;;;20.40;53.60;;;;;;4992097;28;1895;-70
2022/03/08 08:24:45;;;;;;;;;;;20.50;53.20;;;;;;5000576;28;1162;-71
2022/03/08 08:27:10;;;;;;;;;;;20.50;53.00;;;;;;4992808;28;1526;-70
2022/03/08 08:29:35;;;;;;;;;;;20.60;52.80;;;;;;4991076;28;1856;-70
2022/03/08 08:32:01;;;;;;;;;;;20.70;53.20;;;;;;4986888;28;1343;-70
2022/03/08 08:34:26;;;;;;;;;;;20.70;52.50;;;;;;4988693;28;1026;-70
2022/03/08 08:36:52;;;;;;;;;;;20.80;52.50;;;;;;4999996;28;1297;-70
2022/03/08 08:39:17;;;;;;;;;;;20.80;52.40;;;;;;4992740;28;796;-70
2022/03/08 08:41:43;;;;;;;;;;;20.80;52.40;;;;;;4991758;28;1894;-70
2022/03/08 08:44:08;;;;;;;;;;;20.80;52.30;;;;;;4991835;28;1375;-70
2022/03/08 08:46:34;;;;;;;;;;;20.90;52.50;;;;;;4974012;28;1042;-70
2022/03/08 08:48:59;;;;;;;;;;;20.90;52.40;;;;;;4988346;28;1045;-70
2022/03/08 08:51:25;;;;;;;;;;;20.90;52.50;;;;;;4988576;28;891;-70
2022/03/08 08:53:50;;;;;;;;;;;20.90;52.60;;;;;;4973504;28;1221;-70
2022/03/08 08:56:16;;;;;;;;;;;20.90;52.60;;;;;;4988658;28;851;-70
2022/03/08 08:58:41;;;;;;;;;;;20.80;52.60;;;;;;4987939;28;1014;-71
2022/03/08 09:01:06;;;;;;;;;;;20.80;52.60;;;;;;4985872;28;2236;-70
2022/03/08 09:03:32;;;;;;;;;;;20.80;52.60;;;;;;4992848;28;1315;-70
2022/03/08 09:05:58;;;;;;;;;;;20.80;52.60;;;;;;4990620;28;1421;-70
2022/03/08 09:08:24;;;;;;;;;;;20.80;52.60;;;;;;4987424;28;1319;-70
2022/03/08 09:10:50;;;;;;;;;;;20.80;52.60;;;;;;4999561;28;1166;-70
2022/03/08 09:13:16;;;;;;;;;;;20.70;52.60;;;;;;4994920;28;1299;-70
2022/03/08 09:15:41;;;;;;;;;;;20.70;52.70;;;;;;4995963;28;884;-70
2022/03/08 09:18:07;;;;;;;;;;;20.70;52.70;;;;;;4978415;28;1343;-70
2022/03/08 09:20:33;;;;;;;;;;;20.70;52.70;;;;;;4993589;28;1185;-70
2022/03/08 09:22:58;;;;;;;;;;;20.70;52.80;;;;;;4995556;28;1966;-70
2022/03/08 09:25:24;;;;;;;;;;;20.60;52.80;;;;;;4978363;28;1084;-70
2022/03/08 09:27:50;;;;;;;;;;;20.60;52.90;;;;;;4994146;28;1209;-70
2022/03/08 09:30:15;;;;;;;;;;;20.60;53.00;;;;;;4994841;28;914;-69
2022/03/08 09:32:41;;;;;;;;;;;20.60;53.00;;;;;;4978056;28;1736;-70
2022/03/08 09:35:06;;;;;;;;;;;20.60;53.10;;;;;;4995635;28;982;-70
2022/03/08 09:37:32;;;;;;;;;;;20.50;53.10;;;;;;4994035;28;1392;-70
2022/03/08 09:39:57;;;;;;;;;;;20.50;53.20;;;;;;4993665;28;868;-70
2022/03/08 09:42:23;;;;;;;;;;;20.50;53.20;;;;;;4995286;28;1903;-70
2022/03/08 09:44:48;;;;;;;;;;;20.50;53.30;;;;;;5010262;28;864;-70
2022/03/08 09:47:14;;;;;;;;;;;20.50;53.40;;;;;;4995231;28;812;-70
2022/03/08 09:49:40;;;;;;;;;;;20.40;53.40;;;;;;4994633;28;1034;-70
2022/03/08 09:52:05;;;;;;;;;;;20.40;53.40;;;;;;4993883;28;1305;-70
2022/03/08 09:54:31;;;;;;;;;;;20.40;53.50;;;;;;5010426;28;858;-70
2022/03/08 09:56:56;;;;;;;;;;;20.40;53.50;;;;;;4995105;28;801;-70
2022/03/08 09:59:24;;;;;;;;;;;20.40;53.60;;;;;;4989127;28;1640;-70
2022/03/08 10:01:49;;;;;;;;;;;20.30;53.70;;;;;;4994831;28;1946;-70
2022/03/08 10:04:18;;;;;;;;;;;20.30;53.70;;;;;;4994766;28;1313;-70
2022/03/08 10:06:43;;;;;;;;;;;20.30;53.80;;;;;;4977448;28;1273;-71
2022/03/08 10:09:13;;;;;;;;;;;20.30;53.80;;;;;;4993753;28;1173;-70
2022/03/08 10:11:38;;;;;;;;;;;20.30;53.90;;;;;;5010125;28;902;-70
2022/03/08 10:14:04;;;;;;;;;;;20.20;53.90;;;;;;5009580;28;1209;-70
2022/03/08 10:16:41;;;;;;;;;;;20.20;53.90;;;;;;4994619;28;887;-70
2022/03/08 10:19:08;;;;;;;;;;;20.20;54.00;;;;;;4988259;28;868;-70
2022/03/08 10:21:35;;;;;;;;;;;20.20;54.00;;;;;;4974610;28;1902;-70
2022/03/08 10:24:04;;;;;;;;;;;20.20;54.10;;;;;;4974078;28;1302;-70
2022/03/08 10:26:30;;;;;;;;;;;20.20;54.10;;;;;;4975631;28;812;-70
2022/03/08 10:28:55;;;;;;;;;;;20.10;54.10;;;;;;4972668;28;1062;-70
2022/03/08 10:31:21;;;;;;;;;;;20.10;54.20;;;;;;4990121;28;990;-69
2022/03/08 10:33:46;;;;;;;;;;;20.10;54.20;;;;;;4973781;28;1347;-70
2022/03/08 10:36:16;;;;;;;;;;;20.10;54.30;;;;;;4975039;28;1285;-70
2022/03/08 10:39:00;;;;;;;;;;;20.10;54.30;;;;;;4973063;28;1220;-70
2022/03/08 10:41:26;;;;;;;;;;;20.10;54.90;;;;;;4974731;28;1898;-70
2022/03/08 10:43:51;;;;;;;;;;;20.00;54.30;;;;;;4972832;28;1250;-70
2022/03/08 10:48:54;;;;;;;;;;;20.00;54.40;;;;;;4978719;28;1579;-68
2022/03/08 10:51:20;;;;;;;;;;;20.00;54.40;;;;;;4978643;28;2218;-68
2022/03/08 10:53:45;;;;;;;;;;;20.00;54.50;;;;;;5008472;28;1088;-68
2022/03/08 10:56:11;;;;;;;;;;;19.90;54.50;;;;;;4995061;28;1139;-68
2022/03/08 10:58:47;;;;;;;;;;;19.90;54.50;;;;;;5010122;28;1346;-68
2022/03/08 11:01:12;;;;;;;;;;;19.90;54.60;;;;;;4995193;28;1985;-68
2022/03/08 11:03:38;;;;;;;;;;;19.90;54.60;;;;;;4992303;28;2213;-68
2022/03/08 11:06:05;;;;;;;;;;;19.90;54.60;;;;;;4991348;28;926;-66
2022/03/08 11:08:31;;;;;;;;;;;19.90;54.60;;;;;;4994627;28;1277;-66
2022/03/08 11:10:56;;;;;;;;;;;19.90;54.60;;;;;;4993483;28;1116;-66
2022/03/08 11:13:22;;;;;;;;;;;19.90;54.70;;;;;;4993759;28;1125;-66
2022/03/08 11:15:47;;;;;;;;;;;19.90;54.70;;;;;;4994872;28;1014;-66
2022/03/08 11:18:13;;;;;;;;;;;19.90;54.60;;;;;;4994798;28;1273;-66
2022/03/08 11:20:39;;;;;;;;;;;19.90;54.60;;;;;;4993420;28;856;-66
2022/03/08 11:23:05;;;;;;;;;;;20.00;54.60;;;;;;4994820;28;1911;-67
2022/03/08 11:25:34;;;;;;;;;;;20.00;54.60;;;;;;4994549;28;784;-67
2022/03/08 11:28:03;;;;;;;;;;;20.00;54.50;;;;;;4994662;28;1192;-66
2022/03/08 11:30:29;;;;;;;;;;;20.00;54.40;;;;;;4994360;28;788;-67
2022/03/08 11:33:13;;;;;;;;;;;20.10;54.30;;;;;;4994188;28;791;-66
2022/03/08 11:35:57;;;;;;;;;;;20.10;54.30;;;;;;4994490;28;1289;-67
2022/03/08 11:38:23;;;;;;;;;;;20.10;54.30;;;;;;4976997;28;1139;-67
2022/03/08 11:40:53;;;;;;;;;;;20.10;54.30;;;;;;4994240;28;899;-66
2022/03/08 11:43:18;;;;;;;;;;;20.10;54.20;;;;;;4994498;28;1906;-67
2022/03/08 11:45:48;;;;;;;;;;;20.10;54.20;;;;;;4994337;28;1022;-67
2022/03/08 11:48:14;;;;;;;;;;;20.10;54.20;;;;;;4994031;28;1193;-66
2022/03/08 11:50:40;;;;;;;;;;;20.10;54.20;;;;;;4992700;28;864;-67
2022/03/08 11:53:06;;;;;;;;;;;20.10;54.30;;;;;;4994181;28;826;-67
2022/03/08 11:55:43;;;;;;;;;;;20.10;54.20;;;;;;4994274;28;827;-67
2022/03/08 11:58:13;;;;;;;;;;;20.10;54.20;;;;;;4994130;28;1254;-67
2022/03/08 12:00:42;;;;;;;;;;;20.10;54.30;;;;;;4993887;28;836;-67
2022/03/08 12:03:08;;;;;;;;;;;20.10;54.30;;;;;;4993897;28;1902;-68
2022/03/08 12:05:46;;;;;;;;;;;20.10;54.80;;;;;;4992909;28;850;-68
2022/03/08 12:08:27;;;;;;;;;;;20.10;54.30;;;;;;4993945;28;1162;-67
2022/03/08 12:11:00;;;;;;;;;;;20.10;54.30;;;;;;4993871;28;887;-66
2022/03/08 12:13:35;;;;;;;;;;;20.10;54.30;;;;;;4994234;28;899;-67
2022/03/08 12:16:06;;;;;;;;;;;20.10;54.30;;;;;;4992641;28;1072;-68
2022/03/08 12:18:39;;;;;;;;;;;20.00;54.30;;;;;;4993698;28;1164;-67
2022/03/08 12:21:17;;;;;;;;;;;20.00;54.40;;;;;;4993703;28;1895;-68
2022/03/08 12:23:55;;;;;;;;;;;20.00;55.00;;;;;;4993754;28;792;-68
2022/03/08 12:26:30;;;;;;;;;;;20.00;54.50;;;;;;4976341;28;1412;-68
2022/03/08 12:29:22;;;;;;;;;;;20.00;54.50;;;;;;4993442;28;887;-68
2022/03/08 12:32:04;;;;;;;;;;;20.00;54.50;;;;;;4993420;28;1164;-68
2022/03/08 12:34:32;;;;;;;;;;;19.90;54.50;;;;;;4993724;28;914;-68
2022/03/08 12:37:07;;;;;;;;;;;19.90;54.60;;;;;;4979584;28;1336;-68
2022/03/08 12:39:51;;;;;;;;;;;19.90;54.60;;;;;;4973983;28;983;-68
2022/03/08 12:42:18;;;;;;;;;;;19.90;54.60;;;;;;4972899;28;1963;-67
2022/03/08 12:44:56;;;;;;;;;;;19.90;54.70;;;;;;4978122;28;726;-68
2022/03/08 12:47:22;;;;;;;;;;;19.90;54.70;;;;;;4980528;28;1175;-68
2022/03/08 12:49:47;;;;;;;;;;;19.90;54.80;;;;;;4962789;28;813;-68
2022/03/08 12:52:13;;;;;;;;;;;19.90;54.80;;;;;;4979347;28;867;-67
2022/03/08 12:54:39;;;;;;;;;;;19.80;54.80;;;;;;4980371;28;768;-67
2022/03/08 12:57:04;;;;;;;;;;;19.80;55.40;;;;;;4979098;28;1192;-67
2022/03/08 12:59:30;;;;;;;;;;;19.80;54.80;;;;;;4980016;28;1046;-67
2022/03/08 13:02:08;;;;;;;;;;;19.90;54.90;;;;;;4980531;28;1961;-68
2022/03/08 13:04:33;;;;;;;;;;;19.90;54.80;;;;;;4983897;28;2199;-67
2022/03/08 13:07:06;;;;;;;;;;;19.90;54.80;;;;;;4998125;28;1315;-67
2022/03/08 13:09:47;;;;;;;;;;;19.90;54.80;;;;;;4997536;28;1924;-67
2022/03/08 13:12:16;;;;;;;;;;;19.90;54.70;;;;;;4996673;28;1228;-67
2022/03/08 13:14:42;;;;;;;;;;;19.90;54.70;;;;;;4999781;28;859;-67
2022/03/08 13:17:07;;;;;;;;;;;19.90;54.60;;;;;;4998517;28;1293;-67
2022/03/08 13:19:37;;;;;;;;;;;19.90;54.60;;;;;;4998309;28;792;-67
2022/03/08 13:22:02;;;;;;;;;;;20.00;54.70;;;;;;5000172;28;1891;-66
2022/03/08 13:24:28;;;;;;;;;;;20.00;54.70;;;;;;5000026;28;978;-66
2022/03/08 13:26:59;;;;;;;;;;;20.00;54.60;;;;;;4998570;28;1280;-66
2022/03/08 13:29:25;;;;;;;;;;;20.00;54.60;;;;;;4998309;28;879;-67
2022/03/08 13:31:50;;;;;;;;;;;19.90;54.60;;;;;;4998502;28;764;-67
2022/03/08 13:34:16;;;;;;;;;;;19.90;54.60;;;;;;4999760;28;792;-67
2022/03/08 13:36:41;;;;;;;;;;;20.00;54.70;;;;;;4998153;28;1337;-67
2022/03/08 13:39:07;;;;;;;;;;;20.00;54.70;;;;;;4999509;28;792;-66
2022/03/08 13:41:32;;;;;;;;;;;19.90;54.60;;;;;;4999494;28;1898;-67
2022/03/08 13:43:57;;;;;;;;;;;19.90;54.70;;;;;;4982089;28;1937;-67
2022/03/08 13:46:23;;;;;;;;;;;19.90;54.70;;;;;;4999506;28;1239;-67
2022/03/08 13:48:50;;;;;;;;;;;19.90;54.70;;;;;;4999331;28;1029;-67
2022/03/08 13:51:15;;;;;;;;;;;19.90;54.70;;;;;;4998170;28;843;-66
2022/03/08 13:53:40;;;;;;;;;;;19.90;54.80;;;;;;4998412;28;1014;-66
2022/03/08 13:56:06;;;;;;;;;;;19.90;54.80;;;;;;4996613;28;970;-67
2022/03/08 13:58:32;;;;;;;;;;;19.90;54.80;;;;;;4995030;28;1194;-67
2022/03/08 14:00:58;;;;;;;;;;;19.90;54.90;;;;;;4996327;28;841;-67
2022/03/08 14:03:23;;;;;;;;;;;19.90;54.90;;;;;;4996436;28;1948;-67
2022/03/08 14:05:58;;;;;;;;;;;19.90;54.90;;;;;;4996086;28;879;-67
2022/03/08 14:08:24;;;;;;;;;;;19.80;54.90;;;;;;4996259;28;1152;-67
2022/03/08 14:10:51;;;;;;;;;;;19.80;54.90;;;;;;4993253;28;2236;-67
2022/03/08 14:13:16;;;;;;;;;;;19.80;54.90;;;;;;4993456;28;1225;-67
2022/03/08 14:15:59;;;;;;;;;;;19.80;54.90;;;;;;4994975;28;879;-67
2022/03/08 14:18:24;;;;;;;;;;;19.80;55.00;;;;;;4994525;28;1275;-67
2022/03/08 14:20:49;;;;;;;;;;;19.80;55.00;;;;;;4994432;28;1080;-67
2022/03/08 14:23:15;;;;;;;;;;;19.80;55.00;;;;;;4995998;28;1938;-67
2022/03/08 14:26:00;;;;;;;;;;;19.80;55.10;;;;;;4995873;28;918;-67
2022/03/08 14:28:40;;;;;;;;;;;19.80;55.10;;;;;;4994610;28;1161;-67
2022/03/08 14:31:29;;;;;;;;;;;19.80;55.10;;;;;;4994373;28;1297;-67
2022/03/08 14:34:02;;;;;;;;;;;19.80;55.10;;;;;;4990518;28;1343;-67